RPT37 KMIA-KIND
Flight info
| Callsign | RPT37 |
|---|---|
| Flight time | 2h 20m |
| Altitude | 32000 |
| Route | HURCN4 KPASA Q118 BRUTS/N0475F340 Q118 THRSR Q79 SWAPP HAGAL GIIBS4 |
| Aircraft | B738/M-SDE2E3FGHIRWXY/LB1 |
Departure
| Time | 2026-05-06 21:15 |
|---|---|
| Airport | Miami International Airport (KMIA) |
Arrival
| Time | 2026-05-06 23:35 |
|---|---|
| Airport | Indianapolis International Airport (KIND) |
| Time | Latitude | Longitude | Altitude | Speed | Heading |
|---|---|---|---|---|---|
| 2026-05-06 20:58 | 25.79202 | -80.27824 | 12 ft | 0 kts | 283° |
| 2026-05-06 21:06 | 25.79201 | -80.27819 | 12 ft | 2 kts | 283° |
| 2026-05-06 21:07 | 25.79197 | -80.27798 | 12 ft | 2 kts | 283° |
| 2026-05-06 21:07 | 25.79193 | -80.27782 | 12 ft | 2 kts | 283° |
| 2026-05-06 21:07 | 25.79190 | -80.27766 | 12 ft | 1 kts | 283° |
| 2026-05-06 21:07 | 25.79188 | -80.27755 | 12 ft | 2 kts | 283° |
| 2026-05-06 21:08 | 25.79187 | -80.27750 | 12 ft | 0 kts | 281° |
| 2026-05-06 21:09 | 25.79178 | -80.27765 | 12 ft | 7 kts | 213° |
| 2026-05-06 21:10 | 25.79042 | -80.27808 | 12 ft | 29 kts | 195° |
| 2026-05-06 21:10 | 25.78953 | -80.27927 | 12 ft | 18 kts | 282° |
| 2026-05-06 21:10 | 25.79023 | -80.28017 | 12 ft | 13 kts | 333° |
| 2026-05-06 21:10 | 25.79048 | -80.28070 | 12 ft | 8 kts | 290° |
| 2026-05-06 21:11 | 25.79082 | -80.28174 | 12 ft | 20 kts | 290° |
| 2026-05-06 21:11 | 25.79164 | -80.28346 | 12 ft | 27 kts | 305° |
| 2026-05-06 21:11 | 25.79240 | -80.28459 | 12 ft | 26 kts | 302° |
| 2026-05-06 21:11 | 25.79362 | -80.28687 | 12 ft | 24 kts | 300° |
| 2026-05-06 21:12 | 25.79444 | -80.28846 | 13 ft | 22 kts | 299° |
| 2026-05-06 21:12 | 25.79493 | -80.28947 | 12 ft | 22 kts | 298° |
| 2026-05-06 21:12 | 25.79593 | -80.29138 | 12 ft | 20 kts | 301° |
| 2026-05-06 21:12 | 25.79664 | -80.29274 | 12 ft | 22 kts | 301° |
| 2026-05-06 21:13 | 25.79767 | -80.29460 | 12 ft | 33 kts | 298° |
| 2026-05-06 21:13 | 25.79872 | -80.29684 | 12 ft | 31 kts | 303° |
| 2026-05-06 21:13 | 25.79935 | -80.29824 | 12 ft | 29 kts | 287° |
| 2026-05-06 21:13 | 25.79992 | -80.30090 | 12 ft | 19 kts | 312° |
| 2026-05-06 21:14 | 25.80066 | -80.30098 | 12 ft | 8 kts | 76° |
| 2026-05-06 21:14 | 25.80076 | -80.29940 | 12 ft | 49 kts | 86° |
| 2026-05-06 21:14 | 25.80105 | -80.29290 | 12 ft | 117 kts | 88° |
| 2026-05-06 21:14 | 25.80137 | -80.28587 | 13 ft | 156 kts | 88° |
| 2026-05-06 21:15 | 25.80260 | -80.26786 | 557 ft | 181 kts | 84° |
| 2026-05-06 21:15 | 25.80438 | -80.25380 | 1160 ft | 194 kts | 82° |
| 2026-05-06 21:15 | 25.80572 | -80.24336 | 1406 ft | 214 kts | 82° |
| 2026-05-06 21:15 | 25.80777 | -80.22693 | 2074 ft | 220 kts | 82° |
| 2026-05-06 21:16 | 25.81136 | -80.20297 | 2456 ft | 255 kts | 81° |
| 2026-05-06 21:16 | 25.81524 | -80.18343 | 3129 ft | 262 kts | 69° |
| 2026-05-06 21:16 | 25.82489 | -80.16653 | 3852 ft | 267 kts | 41° |
| 2026-05-06 21:16 | 25.84128 | -80.15749 | 4659 ft | 269 kts | 11° |
| 2026-05-06 21:17 | 25.86012 | -80.15641 | 5459 ft | 271 kts | 360° |
| 2026-05-06 21:17 | 25.87272 | -80.15678 | 5965 ft | 273 kts | 359° |
| 2026-05-06 21:17 | 25.89785 | -80.15892 | 6987 ft | 276 kts | 350° |
| 2026-05-06 21:17 | 25.91670 | -80.16419 | 7785 ft | 278 kts | 344° |
| 2026-05-06 21:18 | 25.93502 | -80.17072 | 8518 ft | 280 kts | 343° |
| 2026-05-06 21:18 | 25.95339 | -80.17779 | 9262 ft | 282 kts | 338° |
| 2026-05-06 21:18 | 25.96471 | -80.18516 | 9717 ft | 288 kts | 323° |
| 2026-05-06 21:18 | 25.98328 | -80.20686 | 10537 ft | 300 kts | 313° |
| 2026-05-06 21:19 | 25.99704 | -80.22553 | 10924 ft | 315 kts | 313° |
| 2026-05-06 21:19 | 26.01147 | -80.24437 | 11309 ft | 328 kts | 315° |
| 2026-05-06 21:19 | 26.02700 | -80.26364 | 11643 ft | 343 kts | 316° |
| 2026-05-06 21:19 | 26.04364 | -80.28373 | 11957 ft | 358 kts | 316° |
| 2026-05-06 21:20 | 26.05497 | -80.29730 | 12159 ft | 368 kts | 316° |
| 2026-05-06 21:20 | 26.07264 | -80.31846 | 12498 ft | 380 kts | 316° |
| 2026-05-06 21:20 | 26.09667 | -80.34737 | 13396 ft | 383 kts | 316° |
| 2026-05-06 21:20 | 26.11490 | -80.36938 | 14079 ft | 385 kts | 316° |
| 2026-05-06 21:21 | 26.13293 | -80.39116 | 14742 ft | 387 kts | 315° |
| 2026-05-06 21:21 | 26.15129 | -80.41333 | 15381 ft | 390 kts | 315° |
| 2026-05-06 21:21 | 26.16957 | -80.43542 | 16074 ft | 391 kts | 315° |
| 2026-05-06 21:21 | 26.18794 | -80.45766 | 16681 ft | 394 kts | 315° |
| 2026-05-06 21:22 | 26.20674 | -80.48045 | 17311 ft | 397 kts | 314° |
| 2026-05-06 21:22 | 26.22521 | -80.50283 | 17980 ft | 397 kts | 314° |
| 2026-05-06 21:22 | 26.24391 | -80.52549 | 18572 ft | 400 kts | 314° |
| 2026-05-06 21:22 | 26.26275 | -80.54833 | 19220 ft | 401 kts | 314° |
| 2026-05-06 21:23 | 26.27552 | -80.56381 | 19632 ft | 402 kts | 314° |
| 2026-05-06 21:23 | 26.30073 | -80.59437 | 20436 ft | 403 kts | 314° |
| 2026-05-06 21:23 | 26.31956 | -80.61722 | 21025 ft | 404 kts | 313° |
| 2026-05-06 21:23 | 26.33870 | -80.64044 | 21559 ft | 407 kts | 313° |
| 2026-05-06 21:24 | 26.35768 | -80.66350 | 22148 ft | 407 kts | 313° |
| 2026-05-06 21:24 | 26.37061 | -80.67921 | 22537 ft | 408 kts | 313° |
| 2026-05-06 21:24 | 26.39610 | -80.71021 | 23154 ft | 413 kts | 312° |
| 2026-05-06 21:24 | 26.41562 | -80.73396 | 23637 ft | 416 kts | 313° |
| 2026-05-06 21:25 | 26.43520 | -80.75781 | 24138 ft | 419 kts | 312° |
| 2026-05-06 21:25 | 26.45489 | -80.78180 | 24596 ft | 422 kts | 312° |
| 2026-05-06 21:25 | 26.47474 | -80.80600 | 25108 ft | 424 kts | 312° |
| 2026-05-06 21:25 | 26.49493 | -80.83044 | 25555 ft | 427 kts | 313° |
| 2026-05-06 21:26 | 26.50873 | -80.84612 | 25862 ft | 429 kts | 315° |
| 2026-05-06 21:26 | 26.53836 | -80.87592 | 26470 ft | 433 kts | 319° |
| 2026-05-06 21:26 | 26.56164 | -80.89748 | 26856 ft | 437 kts | 320° |
| 2026-05-06 21:26 | 26.58540 | -80.91885 | 27302 ft | 439 kts | 320° |
| 2026-05-06 21:27 | 26.60931 | -80.94017 | 27773 ft | 440 kts | 320° |
| 2026-05-06 21:27 | 26.63314 | -80.96142 | 28487 ft | 436 kts | 320° |
| 2026-05-06 21:27 | 26.65656 | -80.98238 | 29090 ft | 434 kts | 320° |
| 2026-05-06 21:27 | 26.67221 | -80.99644 | 29446 ft | 433 kts | 320° |
| 2026-05-06 21:28 | 26.69538 | -81.01733 | 30004 ft | 431 kts | 319° |
| 2026-05-06 21:28 | 26.72644 | -81.04546 | 30773 ft | 427 kts | 319° |
| 2026-05-06 21:28 | 26.74945 | -81.06637 | 31317 ft | 424 kts | 319° |
| 2026-05-06 21:28 | 26.77223 | -81.08710 | 31823 ft | 422 kts | 319° |
| 2026-05-06 21:29 | 26.79509 | -81.10795 | 31994 ft | 425 kts | 319° |
| 2026-05-06 21:29 | 26.84097 | -81.14986 | 32005 ft | 421 kts | 319° |
| 2026-05-06 21:30 | 26.88685 | -81.19183 | 32003 ft | 422 kts | 319° |
| 2026-05-06 21:30 | 26.92460 | -81.22640 | 32004 ft | 421 kts | 319° |
| 2026-05-06 21:31 | 26.97743 | -81.27483 | 32006 ft | 422 kts | 319° |
| 2026-05-06 21:31 | 27.02314 | -81.31661 | 32003 ft | 422 kts | 319° |
| 2026-05-06 21:32 | 27.07188 | -81.35438 | 32002 ft | 424 kts | 326° |
| 2026-05-06 21:32 | 27.14013 | -81.39821 | 32003 ft | 425 kts | 328° |
| 2026-05-06 21:33 | 27.19192 | -81.43053 | 32001 ft | 425 kts | 327° |
| 2026-05-06 21:33 | 27.25242 | -81.46862 | 32002 ft | 425 kts | 327° |
| 2026-05-06 21:34 | 27.30373 | -81.50115 | 32010 ft | 424 kts | 327° |
| 2026-05-06 21:34 | 27.35644 | -81.53223 | 32010 ft | 426 kts | 332° |
| 2026-05-06 21:35 | 27.41154 | -81.55817 | 32016 ft | 428 kts | 334° |
| 2026-05-06 21:35 | 27.46684 | -81.58264 | 32016 ft | 428 kts | 334° |
| 2026-05-06 21:36 | 27.52258 | -81.60745 | 32010 ft | 428 kts | 334° |
| 2026-05-06 21:36 | 27.57760 | -81.63229 | 32007 ft | 428 kts | 334° |
| 2026-05-06 21:37 | 27.63317 | -81.65758 | 32005 ft | 427 kts | 333° |
| 2026-05-06 21:37 | 27.68799 | -81.68263 | 32005 ft | 427 kts | 334° |
| 2026-05-06 21:38 | 27.74327 | -81.70795 | 32009 ft | 427 kts | 333° |
| 2026-05-06 21:38 | 27.79838 | -81.73326 | 32011 ft | 426 kts | 333° |
| 2026-05-06 21:39 | 27.84463 | -81.75452 | 32015 ft | 428 kts | 333° |
| 2026-05-06 21:39 | 27.90881 | -81.78402 | 32020 ft | 426 kts | 333° |
| 2026-05-06 21:40 | 27.96401 | -81.80938 | 32021 ft | 426 kts | 333° |
| 2026-05-06 21:40 | 28.01881 | -81.83463 | 32019 ft | 426 kts | 333° |
| 2026-05-06 21:41 | 28.07421 | -81.86021 | 32018 ft | 426 kts | 333° |
| 2026-05-06 21:41 | 28.12951 | -81.88579 | 32019 ft | 427 kts | 333° |
| 2026-05-06 21:42 | 28.18299 | -81.91467 | 32014 ft | 423 kts | 326° |
| 2026-05-06 21:42 | 28.23245 | -81.95062 | 32013 ft | 420 kts | 322° |
| 2026-05-06 21:43 | 28.28028 | -81.98854 | 32013 ft | 420 kts | 321° |
| 2026-05-06 21:43 | 28.32828 | -82.02695 | 32009 ft | 418 kts | 321° |
| 2026-05-06 21:44 | 28.37604 | -82.06506 | 32005 ft | 419 kts | 321° |
| 2026-05-06 21:44 | 28.42381 | -82.10311 | 32005 ft | 418 kts | 321° |
| 2026-05-06 21:45 | 28.47151 | -82.14108 | 32007 ft | 419 kts | 321° |
| 2026-05-06 21:45 | 28.51927 | -82.17907 | 32008 ft | 417 kts | 321° |
| 2026-05-06 21:46 | 28.55929 | -82.21092 | 32014 ft | 418 kts | 321° |
| 2026-05-06 21:46 | 28.61468 | -82.25512 | 32015 ft | 418 kts | 321° |
| 2026-05-06 21:47 | 28.66233 | -82.29314 | 32024 ft | 418 kts | 321° |
| 2026-05-06 21:47 | 28.71022 | -82.33141 | 32022 ft | 418 kts | 321° |
| 2026-05-06 21:48 | 28.75794 | -82.36958 | 32030 ft | 418 kts | 321° |
| 2026-05-06 21:48 | 28.80550 | -82.40764 | 32028 ft | 417 kts | 321° |
| 2026-05-06 21:49 | 28.85298 | -82.44576 | 32031 ft | 417 kts | 321° |
| 2026-05-06 21:49 | 28.90078 | -82.48415 | 32031 ft | 416 kts | 321° |
| 2026-05-06 21:50 | 28.94813 | -82.52217 | 32029 ft | 418 kts | 321° |
| 2026-05-06 21:50 | 28.99561 | -82.56039 | 32031 ft | 418 kts | 321° |
| 2026-05-06 21:51 | 29.04289 | -82.59849 | 32017 ft | 417 kts | 321° |
| 2026-05-06 21:51 | 29.09027 | -82.63672 | 32013 ft | 417 kts | 321° |
| 2026-05-06 21:52 | 29.13796 | -82.67524 | 32013 ft | 416 kts | 320° |
| 2026-05-06 21:52 | 29.18532 | -82.71352 | 32008 ft | 415 kts | 320° |
| 2026-05-06 21:53 | 29.22466 | -82.74532 | 32005 ft | 415 kts | 320° |
| 2026-05-06 21:53 | 29.27953 | -82.78976 | 32012 ft | 416 kts | 320° |
| 2026-05-06 21:54 | 29.32681 | -82.82809 | 32005 ft | 416 kts | 320° |
| 2026-05-06 21:54 | 29.37422 | -82.86659 | 32012 ft | 415 kts | 320° |
| 2026-05-06 21:55 | 29.42131 | -82.90494 | 32010 ft | 415 kts | 320° |
| 2026-05-06 21:55 | 29.46072 | -82.93710 | 32015 ft | 416 kts | 320° |
| 2026-05-06 21:56 | 29.50846 | -82.97456 | 32013 ft | 417 kts | 323° |
| 2026-05-06 21:56 | 29.56945 | -83.00938 | 32014 ft | 424 kts | 331° |
| 2026-05-06 21:57 | 29.62432 | -83.03512 | 32020 ft | 424 kts | 332° |
| 2026-05-06 21:57 | 29.67932 | -83.06062 | 32018 ft | 423 kts | 332° |
| 2026-05-06 21:58 | 29.72481 | -83.08199 | 32016 ft | 423 kts | 332° |
| 2026-05-06 21:58 | 29.78843 | -83.11215 | 32011 ft | 423 kts | 331° |
| 2026-05-06 21:59 | 29.84316 | -83.13830 | 32006 ft | 422 kts | 331° |
| 2026-05-06 21:59 | 29.89742 | -83.16429 | 32002 ft | 421 kts | 331° |
| 2026-05-06 22:00 | 29.95189 | -83.19043 | 32004 ft | 422 kts | 331° |
| 2026-05-06 22:00 | 30.00616 | -83.21651 | 31998 ft | 422 kts | 331° |
| 2026-05-06 22:01 | 30.06036 | -83.24253 | 31994 ft | 420 kts | 331° |
| 2026-05-06 22:01 | 30.11479 | -83.26872 | 32000 ft | 423 kts | 331° |
| 2026-05-06 22:02 | 30.16897 | -83.29481 | 31997 ft | 422 kts | 331° |
| 2026-05-06 22:02 | 30.22307 | -83.32091 | 31995 ft | 420 kts | 331° |
| 2026-05-06 22:03 | 30.27749 | -83.34720 | 32002 ft | 422 kts | 330° |
| 2026-05-06 22:03 | 30.33151 | -83.37334 | 32004 ft | 419 kts | 330° |
| 2026-05-06 22:04 | 30.38557 | -83.39945 | 32002 ft | 420 kts | 330° |
| 2026-05-06 22:04 | 30.43994 | -83.42577 | 32007 ft | 421 kts | 330° |
| 2026-05-06 22:05 | 30.49402 | -83.45200 | 32004 ft | 422 kts | 330° |
| 2026-05-06 22:05 | 30.54814 | -83.47825 | 32004 ft | 421 kts | 330° |
| 2026-05-06 22:06 | 30.60199 | -83.50438 | 32003 ft | 420 kts | 330° |
| 2026-05-06 22:06 | 30.65614 | -83.53074 | 32003 ft | 421 kts | 330° |
| 2026-05-06 22:07 | 30.70137 | -83.55280 | 31999 ft | 420 kts | 330° |
| 2026-05-06 22:07 | 30.76426 | -83.58350 | 32003 ft | 421 kts | 330° |
| 2026-05-06 22:08 | 30.81834 | -83.60994 | 31996 ft | 421 kts | 330° |
| 2026-05-06 22:08 | 30.87261 | -83.63650 | 31995 ft | 418 kts | 330° |
| 2026-05-06 22:09 | 30.92639 | -83.66278 | 31998 ft | 419 kts | 329° |
| 2026-05-06 22:09 | 30.98023 | -83.68927 | 32000 ft | 419 kts | 329° |
| 2026-05-06 22:10 | 31.03422 | -83.71583 | 32001 ft | 418 kts | 329° |
| 2026-05-06 22:10 | 31.08790 | -83.74215 | 32002 ft | 420 kts | 329° |
| 2026-05-06 22:11 | 31.14165 | -83.76854 | 32000 ft | 416 kts | 329° |
| 2026-05-06 22:11 | 31.19525 | -83.79492 | 31996 ft | 421 kts | 329° |
| 2026-05-06 22:12 | 31.24974 | -83.82185 | 31992 ft | 420 kts | 329° |
| 2026-05-06 22:12 | 31.30317 | -83.84823 | 31989 ft | 417 kts | 329° |
| 2026-05-06 22:13 | 31.35692 | -83.87485 | 31988 ft | 419 kts | 329° |
| 2026-05-06 22:13 | 31.41056 | -83.90140 | 31989 ft | 419 kts | 329° |
| 2026-05-06 22:14 | 31.46474 | -83.92735 | 31993 ft | 425 kts | 332° |
| 2026-05-06 22:14 | 31.52170 | -83.95047 | 32662 ft | 428 kts | 333° |
| 2026-05-06 22:15 | 31.54995 | -83.96041 | 33488 ft | 424 kts | 336° |
| 2026-05-06 22:15 | 31.57851 | -83.96871 | 33939 ft | 426 kts | 338° |
| 2026-05-06 22:15 | 31.63740 | -83.98308 | 33978 ft | 430 kts | 340° |
| 2026-05-06 22:16 | 31.69652 | -83.99610 | 33978 ft | 432 kts | 340° |
| 2026-05-06 22:16 | 31.75535 | -84.00898 | 33969 ft | 431 kts | 340° |
| 2026-05-06 22:17 | 31.81464 | -84.02039 | 33969 ft | 434 kts | 342° |
| 2026-05-06 22:17 | 31.87398 | -84.03288 | 33963 ft | 431 kts | 339° |
| 2026-05-06 22:18 | 31.93289 | -84.04720 | 33961 ft | 430 kts | 339° |
| 2026-05-06 22:18 | 31.99149 | -84.06107 | 33963 ft | 430 kts | 340° |
| 2026-05-06 22:19 | 32.05031 | -84.07458 | 33968 ft | 432 kts | 339° |
| 2026-05-06 22:19 | 32.10945 | -84.08795 | 33963 ft | 430 kts | 340° |
| 2026-05-06 22:20 | 32.16858 | -84.10128 | 33970 ft | 432 kts | 339° |
| 2026-05-06 22:20 | 32.22741 | -84.11449 | 33968 ft | 431 kts | 339° |
| 2026-05-06 22:21 | 32.28698 | -84.12788 | 33968 ft | 431 kts | 340° |
| 2026-05-06 22:21 | 32.34566 | -84.14113 | 33957 ft | 432 kts | 339° |
| 2026-05-06 22:22 | 32.40451 | -84.15450 | 33971 ft | 432 kts | 339° |
| 2026-05-06 22:22 | 32.46395 | -84.16792 | 33981 ft | 432 kts | 339° |
| 2026-05-06 22:23 | 32.52306 | -84.18126 | 33983 ft | 434 kts | 339° |
| 2026-05-06 22:23 | 32.58257 | -84.19468 | 33987 ft | 433 kts | 339° |
| 2026-05-06 22:24 | 32.64169 | -84.20811 | 33980 ft | 433 kts | 339° |
| 2026-05-06 22:24 | 32.70123 | -84.22169 | 33984 ft | 434 kts | 339° |
| 2026-05-06 22:25 | 32.76050 | -84.23514 | 33984 ft | 435 kts | 339° |
| 2026-05-06 22:25 | 32.81965 | -84.24860 | 33986 ft | 433 kts | 339° |
| 2026-05-06 22:26 | 32.87913 | -84.26218 | 33988 ft | 434 kts | 339° |
| 2026-05-06 22:26 | 32.93845 | -84.27582 | 33996 ft | 434 kts | 339° |
| 2026-05-06 22:27 | 32.99797 | -84.28947 | 33992 ft | 437 kts | 339° |
| 2026-05-06 22:27 | 33.05747 | -84.30307 | 33990 ft | 439 kts | 339° |
| 2026-05-06 22:28 | 33.10758 | -84.31451 | 33982 ft | 436 kts | 339° |
| 2026-05-06 22:28 | 33.16714 | -84.32809 | 33981 ft | 432 kts | 339° |
| 2026-05-06 22:29 | 33.23688 | -84.34421 | 33984 ft | 436 kts | 339° |
| 2026-05-06 22:29 | 33.29610 | -84.35781 | 33991 ft | 437 kts | 339° |
| 2026-05-06 22:30 | 33.35600 | -84.37167 | 33993 ft | 437 kts | 339° |
| 2026-05-06 22:30 | 33.41587 | -84.38545 | 33989 ft | 440 kts | 339° |
| 2026-05-06 22:31 | 33.47582 | -84.39929 | 33989 ft | 438 kts | 338° |
| 2026-05-06 22:31 | 33.53516 | -84.41301 | 33987 ft | 438 kts | 339° |
| 2026-05-06 22:32 | 33.59531 | -84.42704 | 33985 ft | 440 kts | 339° |
| 2026-05-06 22:32 | 33.64515 | -84.43861 | 33978 ft | 437 kts | 339° |
| 2026-05-06 22:33 | 33.71490 | -84.45409 | 33976 ft | 438 kts | 339° |
| 2026-05-06 22:33 | 33.77534 | -84.46735 | 33973 ft | 442 kts | 339° |
| 2026-05-06 22:34 | 33.83571 | -84.48048 | 33972 ft | 440 kts | 339° |
| 2026-05-06 22:34 | 33.89592 | -84.49374 | 33975 ft | 444 kts | 338° |
| 2026-05-06 22:35 | 33.95726 | -84.50738 | 33969 ft | 445 kts | 339° |
| 2026-05-06 22:35 | 34.01756 | -84.52063 | 33971 ft | 444 kts | 339° |
| 2026-05-06 22:36 | 34.07874 | -84.53505 | 33973 ft | 445 kts | 338° |
| 2026-05-06 22:36 | 34.13897 | -84.55067 | 33966 ft | 442 kts | 336° |
| 2026-05-06 22:37 | 34.19871 | -84.56654 | 33967 ft | 440 kts | 336° |
| 2026-05-06 22:37 | 34.25835 | -84.58218 | 33975 ft | 438 kts | 336° |
| 2026-05-06 22:38 | 34.31821 | -84.59783 | 33973 ft | 442 kts | 336° |
| 2026-05-06 22:38 | 34.37830 | -84.61372 | 33965 ft | 442 kts | 336° |
| 2026-05-06 22:39 | 34.43900 | -84.62976 | 33960 ft | 447 kts | 337° |
| 2026-05-06 22:39 | 34.49907 | -84.64532 | 33960 ft | 443 kts | 337° |
| 2026-05-06 22:40 | 34.55914 | -84.66110 | 33948 ft | 442 kts | 336° |
| 2026-05-06 22:40 | 34.61953 | -84.67670 | 33952 ft | 443 kts | 337° |
| 2026-05-06 22:41 | 34.71068 | -84.69898 | 33952 ft | 449 kts | 338° |
| 2026-05-06 22:42 | 34.77227 | -84.71403 | 33951 ft | 447 kts | 337° |
| 2026-05-06 22:42 | 34.83339 | -84.72928 | 33934 ft | 448 kts | 337° |
| 2026-05-06 22:43 | 34.89447 | -84.74469 | 33934 ft | 446 kts | 337° |
| 2026-05-06 22:43 | 34.95581 | -84.76013 | 33934 ft | 456 kts | 337° |
| 2026-05-06 22:44 | 35.01734 | -84.77529 | 33927 ft | 450 kts | 337° |
| 2026-05-06 22:44 | 35.07934 | -84.79079 | 33936 ft | 455 kts | 337° |
| 2026-05-06 22:45 | 35.13032 | -84.80341 | 33934 ft | 452 kts | 337° |
| 2026-05-06 22:45 | 35.20300 | -84.82162 | 33937 ft | 448 kts | 336° |
| 2026-05-06 22:46 | 35.26381 | -84.83679 | 33938 ft | 448 kts | 335° |
| 2026-05-06 22:46 | 35.32502 | -84.85231 | 33944 ft | 447 kts | 336° |
| 2026-05-06 22:47 | 35.38622 | -84.86784 | 33949 ft | 451 kts | 335° |
| 2026-05-06 22:47 | 35.44736 | -84.88329 | 33938 ft | 443 kts | 335° |
| 2026-05-06 22:48 | 35.50779 | -84.89863 | 33938 ft | 449 kts | 335° |
| 2026-05-06 22:48 | 35.56887 | -84.91419 | 33944 ft | 448 kts | 334° |
| 2026-05-06 22:49 | 35.62975 | -84.92958 | 33942 ft | 439 kts | 334° |
| 2026-05-06 22:49 | 35.68962 | -84.94471 | 33948 ft | 442 kts | 334° |
| 2026-05-06 22:50 | 35.74984 | -84.96006 | 33950 ft | 438 kts | 334° |
| 2026-05-06 22:50 | 35.81052 | -84.97557 | 33958 ft | 444 kts | 334° |
| 2026-05-06 22:51 | 35.87064 | -84.99083 | 33969 ft | 442 kts | 333° |
| 2026-05-06 22:51 | 35.93020 | -85.00600 | 33969 ft | 442 kts | 333° |
| 2026-05-06 22:52 | 35.99068 | -85.02158 | 33985 ft | 445 kts | 333° |
| 2026-05-06 22:52 | 36.05123 | -85.03699 | 33975 ft | 441 kts | 333° |
| 2026-05-06 22:53 | 36.11145 | -85.05240 | 33970 ft | 440 kts | 333° |
| 2026-05-06 22:53 | 36.17088 | -85.06760 | 33976 ft | 440 kts | 333° |
| 2026-05-06 22:54 | 36.23077 | -85.08289 | 33977 ft | 435 kts | 333° |
| 2026-05-06 22:54 | 36.29071 | -85.09843 | 33983 ft | 439 kts | 333° |
| 2026-05-06 22:55 | 36.35077 | -85.11422 | 33982 ft | 444 kts | 333° |
| 2026-05-06 22:55 | 36.41096 | -85.12965 | 33984 ft | 441 kts | 332° |
| 2026-05-06 22:56 | 36.47139 | -85.14529 | 33986 ft | 444 kts | 333° |
| 2026-05-06 22:56 | 36.53132 | -85.16070 | 33986 ft | 439 kts | 332° |
| 2026-05-06 22:57 | 36.59150 | -85.17635 | 33986 ft | 439 kts | 332° |
| 2026-05-06 22:57 | 36.64114 | -85.18923 | 33987 ft | 440 kts | 332° |
| 2026-05-06 22:58 | 36.71149 | -85.20714 | 33989 ft | 441 kts | 332° |
| 2026-05-06 22:58 | 36.77110 | -85.22212 | 33991 ft | 438 kts | 333° |
| 2026-05-06 22:59 | 36.83135 | -85.23741 | 33994 ft | 440 kts | 332° |
| 2026-05-06 22:59 | 36.89119 | -85.25267 | 33996 ft | 438 kts | 332° |
| 2026-05-06 23:00 | 36.95101 | -85.26801 | 33998 ft | 439 kts | 332° |
| 2026-05-06 23:00 | 37.01088 | -85.28339 | 33997 ft | 442 kts | 332° |
| 2026-05-06 23:01 | 37.07117 | -85.29883 | 34001 ft | 438 kts | 332° |
| 2026-05-06 23:01 | 37.13100 | -85.31408 | 34005 ft | 439 kts | 332° |
| 2026-05-06 23:02 | 37.18119 | -85.32701 | 33997 ft | 440 kts | 332° |
| 2026-05-06 23:02 | 37.25110 | -85.34516 | 34005 ft | 442 kts | 332° |
| 2026-05-06 23:03 | 37.31114 | -85.36066 | 34020 ft | 442 kts | 332° |
| 2026-05-06 23:03 | 37.37151 | -85.37636 | 34021 ft | 449 kts | 332° |
| 2026-05-06 23:04 | 37.43263 | -85.39223 | 34013 ft | 445 kts | 332° |
| 2026-05-06 23:04 | 37.49307 | -85.40774 | 34006 ft | 444 kts | 332° |
| 2026-05-06 23:05 | 37.55379 | -85.42351 | 33994 ft | 446 kts | 332° |
| 2026-05-06 23:05 | 37.61468 | -85.43938 | 33998 ft | 449 kts | 332° |
| 2026-05-06 23:06 | 37.67577 | -85.45540 | 33998 ft | 450 kts | 332° |
| 2026-05-06 23:06 | 37.73725 | -85.47147 | 33993 ft | 449 kts | 332° |
| 2026-05-06 23:07 | 37.79782 | -85.48727 | 33997 ft | 448 kts | 332° |
| 2026-05-06 23:07 | 37.85953 | -85.50359 | 33999 ft | 452 kts | 332° |
| 2026-05-06 23:08 | 37.92065 | -85.51949 | 33991 ft | 448 kts | 332° |
| 2026-05-06 23:08 | 37.98211 | -85.53571 | 34000 ft | 453 kts | 332° |
| 2026-05-06 23:09 | 38.04390 | -85.55189 | 33997 ft | 448 kts | 332° |
| 2026-05-06 23:09 | 38.10516 | -85.56809 | 33994 ft | 455 kts | 332° |
| 2026-05-06 23:10 | 38.16742 | -85.58456 | 33994 ft | 452 kts | 332° |
| 2026-05-06 23:10 | 38.22924 | -85.59773 | 33915 ft | 453 kts | 335° |
| 2026-05-06 23:10 | 38.26065 | -85.60257 | 33472 ft | 456 kts | 337° |
| 2026-05-06 23:11 | 38.29201 | -85.60689 | 32954 ft | 453 kts | 338° |
| 2026-05-06 23:11 | 38.32361 | -85.61105 | 32426 ft | 449 kts | 337° |
| 2026-05-06 23:11 | 38.35446 | -85.61514 | 31912 ft | 447 kts | 337° |
| 2026-05-06 23:11 | 38.38491 | -85.61925 | 31405 ft | 443 kts | 337° |
| 2026-05-06 23:12 | 38.41566 | -85.62356 | 30890 ft | 440 kts | 336° |
| 2026-05-06 23:12 | 38.44614 | -85.62804 | 30381 ft | 440 kts | 336° |
| 2026-05-06 23:12 | 38.46659 | -85.63116 | 30041 ft | 442 kts | 336° |
| 2026-05-06 23:12 | 38.49697 | -85.63590 | 29546 ft | 444 kts | 337° |
| 2026-05-06 23:13 | 38.53777 | -85.64374 | 28879 ft | 442 kts | 334° |
| 2026-05-06 23:13 | 38.56789 | -85.64987 | 28388 ft | 439 kts | 335° |
| 2026-05-06 23:13 | 38.59806 | -85.65539 | 27895 ft | 436 kts | 335° |
| 2026-05-06 23:13 | 38.62803 | -85.66038 | 27399 ft | 433 kts | 336° |
| 2026-05-06 23:14 | 38.65797 | -85.66505 | 26897 ft | 431 kts | 337° |
| 2026-05-06 23:14 | 38.67779 | -85.66804 | 26565 ft | 428 kts | 337° |
| 2026-05-06 23:14 | 38.71733 | -85.67388 | 25907 ft | 425 kts | 337° |
| 2026-05-06 23:14 | 38.74677 | -85.67815 | 25418 ft | 425 kts | 337° |
| 2026-05-06 23:15 | 38.77606 | -85.68240 | 24928 ft | 427 kts | 337° |
| 2026-05-06 23:15 | 38.80559 | -85.68667 | 24416 ft | 424 kts | 338° |
| 2026-05-06 23:15 | 38.83467 | -85.69083 | 23826 ft | 423 kts | 338° |
| 2026-05-06 23:15 | 38.86390 | -85.69501 | 23229 ft | 422 kts | 338° |
| 2026-05-06 23:16 | 38.89278 | -85.69915 | 22640 ft | 421 kts | 339° |
| 2026-05-06 23:16 | 38.92183 | -85.70335 | 22048 ft | 419 kts | 338° |
| 2026-05-06 23:16 | 38.95061 | -85.70755 | 21445 ft | 417 kts | 339° |
| 2026-05-06 23:16 | 38.97948 | -85.71178 | 20833 ft | 416 kts | 339° |
| 2026-05-06 23:17 | 39.00829 | -85.71596 | 20223 ft | 413 kts | 340° |
| 2026-05-06 23:17 | 39.02700 | -85.71864 | 19826 ft | 412 kts | 340° |
| 2026-05-06 23:17 | 39.06459 | -85.72405 | 19010 ft | 407 kts | 340° |
| 2026-05-06 23:17 | 39.09266 | -85.72811 | 18398 ft | 404 kts | 341° |
| 2026-05-06 23:18 | 39.12026 | -85.73257 | 17790 ft | 396 kts | 339° |
| 2026-05-06 23:18 | 39.14696 | -85.73923 | 17184 ft | 386 kts | 334° |
| 2026-05-06 23:18 | 39.17232 | -85.74886 | 16571 ft | 375 kts | 329° |
| 2026-05-06 23:18 | 39.19660 | -85.76078 | 15947 ft | 367 kts | 326° |
| 2026-05-06 23:19 | 39.21216 | -85.76933 | 15542 ft | 364 kts | 325° |
| 2026-05-06 23:19 | 39.24248 | -85.78699 | 14734 ft | 360 kts | 325° |
| 2026-05-06 23:19 | 39.26528 | -85.80051 | 14110 ft | 357 kts | 326° |
| 2026-05-06 23:19 | 39.28759 | -85.81366 | 13501 ft | 355 kts | 326° |
| 2026-05-06 23:20 | 39.30985 | -85.82667 | 12898 ft | 353 kts | 327° |
| 2026-05-06 23:20 | 39.33166 | -85.84065 | 12284 ft | 346 kts | 321° |
| 2026-05-06 23:20 | 39.35137 | -85.85781 | 11668 ft | 338 kts | 316° |
| 2026-05-06 23:20 | 39.36965 | -85.87679 | 11052 ft | 335 kts | 314° |
| 2026-05-06 23:21 | 39.38727 | -85.89610 | 10436 ft | 333 kts | 314° |
| 2026-05-06 23:21 | 39.40480 | -85.91528 | 10044 ft | 325 kts | 315° |
| 2026-05-06 23:21 | 39.42164 | -85.93328 | 9963 ft | 308 kts | 315° |
| 2026-05-06 23:21 | 39.43789 | -85.95039 | 9970 ft | 290 kts | 315° |
| 2026-05-06 23:22 | 39.45299 | -85.96659 | 9972 ft | 273 kts | 314° |
| 2026-05-06 23:22 | 39.46714 | -85.98206 | 9973 ft | 262 kts | 314° |
| 2026-05-06 23:22 | 39.48090 | -85.99721 | 9949 ft | 263 kts | 314° |
| 2026-05-06 23:22 | 39.49492 | -86.01259 | 9747 ft | 264 kts | 314° |
| 2026-05-06 23:23 | 39.50427 | -86.02281 | 9587 ft | 261 kts | 314° |
| 2026-05-06 23:23 | 39.52254 | -86.04273 | 9253 ft | 254 kts | 315° |
| 2026-05-06 23:23 | 39.53587 | -86.05727 | 9002 ft | 249 kts | 315° |
| 2026-05-06 23:23 | 39.54899 | -86.07161 | 8753 ft | 245 kts | 315° |
| 2026-05-06 23:24 | 39.56205 | -86.08587 | 8501 ft | 245 kts | 315° |
| 2026-05-06 23:24 | 39.57509 | -86.10016 | 8250 ft | 243 kts | 316° |
| 2026-05-06 23:24 | 39.58803 | -86.11430 | 7999 ft | 244 kts | 316° |
| 2026-05-06 23:24 | 39.60080 | -86.12828 | 7748 ft | 240 kts | 317° |
| 2026-05-06 23:25 | 39.61342 | -86.14202 | 7497 ft | 236 kts | 317° |
| 2026-05-06 23:25 | 39.62580 | -86.15544 | 7268 ft | 230 kts | 317° |
| 2026-05-06 23:25 | 39.63779 | -86.16844 | 7029 ft | 220 kts | 318° |
| 2026-05-06 23:25 | 39.64979 | -86.18066 | 6719 ft | 215 kts | 324° |
| 2026-05-06 23:26 | 39.66375 | -86.18735 | 6407 ft | 215 kts | 353° |
| 2026-05-06 23:26 | 39.67828 | -86.18431 | 6111 ft | 216 kts | 18° |
| 2026-05-06 23:26 | 39.69156 | -86.17511 | 5807 ft | 215 kts | 33° |
| 2026-05-06 23:26 | 39.70246 | -86.16195 | 5504 ft | 213 kts | 44° |
| 2026-05-06 23:27 | 39.71257 | -86.14808 | 5203 ft | 210 kts | 43° |
| 2026-05-06 23:27 | 39.72278 | -86.13476 | 4904 ft | 208 kts | 42° |
| 2026-05-06 23:27 | 39.73294 | -86.12152 | 4605 ft | 206 kts | 41° |
| 2026-05-06 23:27 | 39.74303 | -86.10832 | 4302 ft | 204 kts | 41° |
| 2026-05-06 23:28 | 39.75315 | -86.09559 | 4028 ft | 200 kts | 40° |
| 2026-05-06 23:28 | 39.76283 | -86.08328 | 3969 ft | 192 kts | 39° |
| 2026-05-06 23:28 | 39.77244 | -86.07091 | 3988 ft | 194 kts | 40° |
| 2026-05-06 23:28 | 39.78194 | -86.05866 | 3988 ft | 193 kts | 41° |
| 2026-05-06 23:29 | 39.79155 | -86.04625 | 3987 ft | 194 kts | 40° |
| 2026-05-06 23:29 | 39.80104 | -86.03389 | 3987 ft | 194 kts | 40° |
| 2026-05-06 23:29 | 39.81218 | -86.02447 | 3980 ft | 187 kts | 8° |
| 2026-05-06 23:29 | 39.82442 | -86.02656 | 3986 ft | 179 kts | 324° |
| 2026-05-06 23:30 | 39.83268 | -86.03844 | 4001 ft | 179 kts | 305° |
| 2026-05-06 23:30 | 39.83962 | -86.05167 | 3987 ft | 176 kts | 304° |
| 2026-05-06 23:30 | 39.84433 | -86.06052 | 3984 ft | 177 kts | 303° |
| 2026-05-06 23:30 | 39.84676 | -86.08102 | 4001 ft | 181 kts | 258° |
| 2026-05-06 23:31 | 39.84284 | -86.09658 | 3962 ft | 182 kts | 255° |
| 2026-05-06 23:31 | 39.83865 | -86.11227 | 3731 ft | 183 kts | 255° |
| 2026-05-06 23:31 | 39.83462 | -86.12770 | 3483 ft | 181 kts | 256° |
| 2026-05-06 23:31 | 39.83057 | -86.14336 | 3233 ft | 180 kts | 256° |
| 2026-05-06 23:32 | 39.82628 | -86.15848 | 3009 ft | 178 kts | 246° |
| 2026-05-06 23:32 | 39.81918 | -86.17172 | 2992 ft | 180 kts | 235° |
| 2026-05-06 23:32 | 39.81098 | -86.18429 | 2992 ft | 183 kts | 234° |
| 2026-05-06 23:32 | 39.80247 | -86.19647 | 2849 ft | 181 kts | 231° |
| 2026-05-06 23:33 | 39.79398 | -86.20785 | 2633 ft | 169 kts | 231° |
| 2026-05-06 23:33 | 39.78590 | -86.21852 | 2392 ft | 161 kts | 231° |
| 2026-05-06 23:33 | 39.77812 | -86.22858 | 2228 ft | 153 kts | 230° |
| 2026-05-06 23:33 | 39.77045 | -86.23855 | 1965 ft | 157 kts | 230° |
| 2026-05-06 23:34 | 39.76266 | -86.24839 | 1808 ft | 155 kts | 230° |
| 2026-05-06 23:34 | 39.75507 | -86.25835 | 1618 ft | 155 kts | 231° |
| 2026-05-06 23:34 | 39.74756 | -86.26820 | 1451 ft | 153 kts | 230° |
| 2026-05-06 23:34 | 39.73990 | -86.27806 | 1196 ft | 157 kts | 228° |
| 2026-05-06 23:35 | 39.73213 | -86.28803 | 933 ft | 157 kts | 229° |
| 2026-05-06 23:35 | 39.72449 | -86.29772 | 776 ft | 143 kts | 227° |
| 2026-05-06 23:35 | 39.71965 | -86.30399 | 762 ft | 49 kts | 225° |
| 2026-05-06 23:35 | 39.71785 | -86.30634 | 758 ft | 21 kts | 225° |
| 2026-05-06 23:36 | 39.71725 | -86.30714 | 757 ft | 17 kts | 226° |
| 2026-05-06 23:36 | 39.71625 | -86.30842 | 757 ft | 14 kts | 221° |
| 2026-05-06 23:36 | 39.71528 | -86.30947 | 755 ft | 26 kts | 219° |